Time;durP1;ratioP1;P1;durP2;ratioP2;P2;SDS_P1;SDS_P2;PMS_P1;PMS_P2;Temp;Humidity;BMP_temperature;BMP_pressure;BME280_temperature;BME280_humidity;BME280_pressure;Samples;Min_cycle;Max_cycle;Signal;HPM_P1;HPM_P2
2022/06/21 00:01:26;;;;;;;5.87;4.80;;;13.80;99.90;;;;;;5064737;28;20190;-53
2022/06/21 00:03:52;;;;;;;5.20;4.80;;;13.80;99.90;;;;;;5067564;28;21990;-52
2022/06/21 00:06:22;;;;;;;5.60;5.20;;;13.70;99.90;;;;;;5069925;28;20189;-53
2022/06/21 00:08:48;;;;;;;6.10;5.60;;;13.70;99.90;;;;;;5069722;28;20475;-53
2022/06/21 00:11:23;;;;;;;5.43;5.03;;;13.60;99.90;;;;;;5054139;28;20440;-55
2022/06/21 00:13:48;;;;;;;7.87;5.60;;;13.60;99.90;;;;;;5051974;28;20407;-53
2022/06/21 00:16:15;;;;;;;7.87;4.93;;;13.50;99.90;;;;;;5069990;28;20428;-53
2022/06/21 00:18:43;;;;;;;7.40;5.70;;;13.50;99.90;;;;;;5069401;28;20194;-55
2022/06/21 00:21:22;;;;;;;6.53;5.33;;;13.40;99.90;;;;;;5062220;28;20448;-53
2022/06/21 00:23:50;;;;;;;7.30;5.20;;;13.40;99.90;;;;;;5061507;28;20436;-52
2022/06/21 00:26:18;;;;;;;5.83;5.33;;;13.50;99.90;;;;;;5061229;28;20428;-51
2022/06/21 00:28:43;;;;;;;6.40;5.27;;;13.40;99.90;;;;;;5067653;28;20470;-52
2022/06/21 00:31:34;;;;;;;5.27;4.87;;;13.40;99.90;;;;;;5067152;28;20420;-52
2022/06/21 00:34:06;;;;;;;5.30;4.90;;;13.30;99.90;;;;;;5058360;28;20687;-51
2022/06/21 00:36:36;;;;;;;5.63;5.13;;;13.30;99.90;;;;;;5052635;28;20424;-51
2022/06/21 00:39:04;;;;;;;6.10;5.50;;;13.30;99.90;;;;;;5059748;28;20439;-53
2022/06/21 00:41:52;;;;;;;5.23;4.70;;;13.20;99.90;;;;;;5060829;28;20433;-53
2022/06/21 00:44:46;;;;;;;5.67;5.17;;;13.20;99.90;;;;;;5054933;28;20459;-52
2022/06/21 00:47:25;;;;;;;5.63;5.13;;;13.20;99.90;;;;;;5059702;28;20443;-53
2022/06/21 00:50:09;;;;;;;9.63;5.20;;;13.10;99.90;;;;;;5057286;28;20440;-50
2022/06/21 00:53:01;;;;;;;7.10;5.50;;;13.10;99.90;;;;;;5058656;28;20461;-54
2022/06/21 00:55:42;;;;;;;6.27;5.57;;;13.10;99.90;;;;;;5066095;28;20481;-53
2022/06/21 00:58:12;;;;;;;7.10;4.87;;;13.00;99.90;;;;;;5065551;28;20495;-56
2022/06/21 01:01:01;;;;;;;7.70;5.17;;;12.90;99.90;;;;;;5068627;28;20446;-51
2022/06/21 01:03:32;;;;;;;5.90;5.30;;;13.00;99.90;;;;;;5062019;28;20807;-54
2022/06/21 01:06:03;;;;;;;9.70;7.63;;;12.90;99.90;;;;;;5058164;28;20918;-51
2022/06/21 01:08:33;;;;;;;5.17;4.67;;;12.80;99.90;;;;;;5054051;28;20468;-54
2022/06/21 01:11:05;;;;;;;5.77;5.27;;;12.80;99.90;;;;;;5067929;28;20832;-51
2022/06/21 01:13:37;;;;;;;5.53;5.03;;;12.80;99.90;;;;;;5063771;28;20433;-52
2022/06/21 01:16:03;;;;;;;7.83;7.13;;;12.80;99.90;;;;;;5049519;28;20429;-48
2022/06/21 01:18:29;;;;;;;6.47;5.57;;;12.70;99.90;;;;;;5062710;28;20436;-53
2022/06/21 01:20:56;;;;;;;6.43;5.60;;;12.70;99.90;;;;;;5060820;28;20439;-50
2022/06/21 01:23:34;;;;;;;5.40;4.90;;;12.70;99.90;;;;;;5049481;28;20193;-51
2022/06/21 01:26:31;;;;;;;5.53;5.10;;;12.70;99.90;;;;;;5049677;28;20428;-51
2022/06/21 01:28:58;;;;;;;5.90;5.40;;;12.70;99.90;;;;;;5063104;28;20479;-51
2022/06/21 01:31:24;;;;;;;5.87;5.37;;;12.60;99.90;;;;;;5067017;28;20985;-51
2022/06/21 01:33:49;;;;;;;6.30;5.80;;;12.60;99.90;;;;;;5056178;28;20443;-50
2022/06/21 01:36:21;;;;;;;7.70;5.50;;;12.60;99.90;;;;;;5051155;28;20197;-55
2022/06/21 01:39:07;;;;;;;7.60;6.00;;;12.60;99.90;;;;;;5060383;28;20212;-53
2022/06/21 01:41:49;;;;;;;5.97;5.40;;;12.50;99.90;;;;;;5056887;28;20530;-55
2022/06/21 01:44:24;;;;;;;6.10;5.50;;;12.40;99.90;;;;;;5056777;28;20417;-51
2022/06/21 01:46:50;;;;;;;6.57;5.40;;;12.30;99.90;;;;;;5061918;28;20435;-52
2022/06/21 01:49:21;;;;;;;6.03;5.43;;;12.30;99.90;;;;;;5058786;28;20567;-49
2022/06/21 01:52:01;;;;;;;6.23;5.60;;;12.20;99.90;;;;;;5054095;28;20574;-53
2022/06/21 01:54:33;;;;;;;7.90;5.90;;;12.20;99.90;;;;;;5061869;28;20434;-54
2022/06/21 01:56:59;;;;;;;7.40;5.73;;;12.20;99.90;;;;;;5063181;28;20475;-55
2022/06/21 01:59:39;;;;;;;6.07;5.53;;;12.10;99.90;;;;;;5063253;28;20482;-53
2022/06/21 02:02:12;;;;;;;6.40;5.67;;;12.10;99.90;;;;;;5060110;28;20463;-53
2022/06/21 02:05:09;;;;;;;8.13;6.27;;;12.20;99.90;;;;;;5060106;28;20765;-53
2022/06/21 02:07:59;;;;;;;8.17;6.23;;;12.10;99.90;;;;;;5057189;28;20484;-55
2022/06/21 02:10:31;;;;;;;7.03;6.43;;;12.10;99.90;;;;;;5056645;28;20465;-53
2022/06/21 02:13:11;;;;;;;6.80;6.20;;;12.20;99.90;;;;;;5051476;28;20485;-53
2022/06/21 02:15:39;;;;;;;8.43;6.57;;;12.20;99.90;;;;;;5049874;28;20446;-54
2022/06/21 02:18:10;;;;;;;7.00;6.30;;;12.10;99.90;;;;;;5054196;28;20448;-53
2022/06/21 02:20:42;;;;;;;8.07;6.30;;;12.00;99.90;;;;;;5068554;28;20428;-52
2022/06/21 02:23:12;;;;;;;7.50;6.87;;;12.00;99.90;;;;;;5066811;28;20501;-49
2022/06/21 02:25:40;;;;;;;7.70;6.90;;;12.00;99.90;;;;;;5071939;28;20451;-50
2022/06/21 02:28:09;;;;;;;7.10;6.50;;;11.90;99.90;;;;;;5064836;28;20563;-51
2022/06/21 02:30:38;;;;;;;8.97;6.97;;;11.80;99.90;;;;;;5049949;28;20467;-55
2022/06/21 02:33:09;;;;;;;7.60;6.83;;;11.70;99.90;;;;;;5066528;28;20758;-52
2022/06/21 02:35:41;;;;;;;7.00;6.07;;;11.70;99.90;;;;;;5068883;28;20412;-51
2022/06/21 02:38:15;;;;;;;8.23;6.97;;;11.70;99.90;;;;;;5067891;28;20436;-55
2022/06/21 02:40:44;;;;;;;7.80;7.00;;;11.70;99.90;;;;;;5051416;28;20457;-52
2022/06/21 02:43:24;;;;;;;9.23;6.87;;;11.70;99.90;;;;;;5061299;28;20443;-49
2022/06/21 02:45:53;;;;;;;10.43;6.77;;;11.60;99.90;;;;;;5063848;28;21179;-52
2022/06/21 02:48:24;;;;;;;9.07;7.33;;;11.50;99.90;;;;;;5066964;28;20517;-48
2022/06/21 02:50:58;;;;;;;7.33;6.60;;;11.50;99.90;;;;;;5053045;28;20459;-49
2022/06/21 02:53:36;;;;;;;7.10;6.40;;;11.60;99.90;;;;;;5048464;28;20494;-51
2022/06/21 02:56:34;;;;;;;7.13;6.43;;;11.50;99.90;;;;;;5074110;28;20449;-50
2022/06/21 02:59:02;;;;;;;11.10;6.70;;;11.40;99.90;;;;;;5050884;28;20549;-51
2022/06/21 03:01:39;;;;;;;7.10;6.33;;;11.50;99.90;;;;;;5062610;28;20466;-51
2022/06/21 03:04:07;;;;;;;8.50;7.03;;;11.50;99.90;;;;;;5062498;28;20450;-54
2022/06/21 03:06:34;;;;;;;7.80;6.27;;;11.50;99.90;;;;;;5071405;28;20440;-51
2022/06/21 03:09:06;;;;;;;7.53;6.83;;;11.50;99.90;;;;;;5062761;28;20524;-53
2022/06/21 03:11:36;;;;;;;6.60;5.93;;;11.50;99.90;;;;;;5064720;28;20494;-53
2022/06/21 03:14:05;;;;;;;8.50;6.70;;;11.50;99.90;;;;;;5066108;28;20966;-52
2022/06/21 03:16:31;;;;;;;7.67;6.97;;;11.50;99.90;;;;;;5069290;28;20493;-49
2022/06/21 03:19:01;;;;;;;7.80;7.20;;;11.50;99.90;;;;;;5071803;28;20806;-54
2022/06/21 03:21:34;;;;;;;6.53;5.93;;;11.50;99.90;;;;;;5054379;28;21085;-52
2022/06/21 03:24:03;;;;;;;7.67;6.10;;;11.50;99.90;;;;;;5072465;28;20871;-50
2022/06/21 03:26:29;;;;;;;6.43;5.83;;;11.50;99.90;;;;;;5073369;28;20510;-55
2022/06/21 03:28:55;;;;;;;7.03;6.43;;;11.60;99.90;;;;;;5071445;28;20950;-51
2022/06/21 03:31:22;;;;;;;7.80;6.50;;;11.60;99.90;;;;;;5067831;28;20436;-55
2022/06/21 03:33:52;;;;;;;7.20;6.50;;;11.70;99.90;;;;;;5063397;28;20717;-49
2022/06/21 03:36:21;;;;;;;6.60;6.00;;;11.80;99.90;;;;;;5065072;28;20530;-55
2022/06/21 03:38:51;;;;;;;6.60;5.93;;;11.80;99.90;;;;;;5069633;28;20784;-53
2022/06/21 03:44:14;;;;;;;6.23;5.73;;;11.90;99.90;;;;;;5071888;28;20921;-54
2022/06/21 03:46:47;;;;;;;7.27;5.80;;;11.90;99.90;;;;;;5065108;28;20464;-54
2022/06/21 03:49:42;;;;;;;6.40;5.80;;;12.00;99.90;;;;;;5070365;28;20473;-52
2022/06/21 03:52:13;;;;;;;7.07;6.07;;;12.00;99.90;;;;;;5063230;28;20424;-50
2022/06/21 03:54:45;;;;;;;6.83;6.23;;;12.10;99.90;;;;;;5070949;28;20426;-54
2022/06/21 03:57:24;;;;;;;7.30;6.20;;;12.20;99.90;;;;;;5070511;28;20470;-53
2022/06/21 03:59:58;;;;;;;8.30;5.93;;;12.30;99.90;;;;;;5068655;28;20435;-50
2022/06/21 04:02:33;;;;;;;6.83;6.23;;;12.30;99.90;;;;;;5070397;28;20435;-51
2022/06/21 04:05:09;;;;;;;8.60;6.50;;;12.40;99.90;;;;;;5069636;28;20435;-52
2022/06/21 04:07:42;;;;;;;7.23;5.97;;;12.50;99.90;;;;;;5080057;28;20473;-52
2022/06/21 04:10:36;;;;;;;6.60;6.10;;;12.50;99.90;;;;;;5072184;28;20853;-49
2022/06/21 04:13:38;;;;;;;6.80;6.20;;;12.50;99.90;;;;;;5062138;28;20436;-54
2022/06/21 04:16:27;;;;;;;6.00;5.50;;;12.50;99.90;;;;;;5016419;28;20440;-54
2022/06/21 04:19:00;;;;;;;6.83;6.13;;;12.40;99.90;;;;;;5051521;28;20476;-53
2022/06/21 04:22:09;;;;;;;6.80;6.20;;;12.50;99.90;;;;;;5047544;28;20502;-53
2022/06/21 04:24:46;;;;;;;10.83;6.57;;;12.50;99.90;;;;;;4981517;28;20439;-53
2022/06/21 04:27:21;;;;;;;6.80;6.23;;;12.40;99.90;;;;;;4992685;28;20470;-50
2022/06/21 04:30:07;;;;;;;7.00;6.27;;;12.50;99.90;;;;;;4987739;28;21058;-54
2022/06/21 04:32:56;;;;;;;8.60;6.87;;;12.50;99.90;;;;;;4994712;28;20534;-54
2022/06/21 04:35:28;;;;;;;6.90;6.00;;;12.60;99.90;;;;;;4991402;28;21044;-53
2022/06/21 04:38:07;;;;;;;6.67;5.97;;;12.60;99.90;;;;;;4982320;28;20435;-51
2022/06/21 04:40:40;;;;;;;6.63;5.83;;;12.80;99.90;;;;;;4991903;28;20506;-50
2022/06/21 04:43:18;;;;;;;7.40;6.27;;;12.80;99.90;;;;;;5002980;28;20497;-53
2022/06/21 04:45:55;;;;;;;7.80;6.00;;;12.90;99.90;;;;;;5001742;28;20825;-50
2022/06/21 04:48:27;;;;;;;7.60;6.00;;;13.00;99.90;;;;;;4988207;28;20966;-52
2022/06/21 04:51:06;;;;;;;8.90;6.57;;;13.00;99.90;;;;;;4994453;28;20438;-53
2022/06/21 04:53:50;;;;;;;7.47;6.70;;;13.10;99.90;;;;;;5005351;28;20451;-51
2022/06/21 04:56:36;;;;;;;8.17;6.70;;;13.00;99.90;;;;;;5052526;28;20494;-52
2022/06/21 04:59:05;;;;;;;6.37;5.77;;;13.10;99.90;;;;;;5068445;28;20583;-53
2022/06/21 05:01:32;;;;;;;9.70;6.20;;;13.10;99.90;;;;;;5069057;28;20451;-52
2022/06/21 05:04:27;;;;;;;7.30;6.07;;;13.30;99.90;;;;;;5069444;28;20443;-55
2022/06/21 05:06:55;;;;;;;8.27;5.83;;;13.40;99.90;;;;;;5065083;28;20534;-48
2022/06/21 05:09:24;;;;;;;8.33;6.10;;;13.50;99.90;;;;;;5058519;28;20905;-50
2022/06/21 05:11:58;;;;;;;7.87;5.70;;;13.60;99.90;;;;;;5068179;28;20485;-54
2022/06/21 05:14:28;;;;;;;10.70;6.60;;;13.70;99.90;;;;;;5069602;28;20423;-51
2022/06/21 05:16:54;;;;;;;7.40;5.90;;;13.70;99.90;;;;;;5055815;28;20436;-54
2022/06/21 05:19:25;;;;;;;6.83;6.03;;;13.70;99.90;;;;;;5049617;28;20836;-52
2022/06/21 05:22:04;;;;;;;7.80;5.63;;;13.80;99.90;;;;;;5052042;28;20179;-52
2022/06/21 05:24:31;;;;;;;5.93;5.30;;;14.00;99.90;;;;;;5075257;28;20936;-51
2022/06/21 05:27:31;;;;;;;8.60;5.80;;;13.90;99.90;;;;;;5066983;28;20453;-53
2022/06/21 05:30:25;;;;;;;6.30;5.80;;;14.00;99.90;;;;;;5063236;28;20902;-52
2022/06/21 05:32:58;;;;;;;7.20;6.00;;;14.10;99.90;;;;;;5060937;28;21320;-53
2022/06/21 05:35:28;;;;;;;7.50;5.67;;;14.20;99.90;;;;;;5058694;28;20471;-49
2022/06/21 05:37:59;;;;;;;5.30;4.90;;;14.40;99.90;;;;;;5058775;28;20439;-53
2022/06/21 05:40:43;;;;;;;9.47;4.90;;;14.50;99.90;;;;;;5069137;28;20404;-53
2022/06/21 05:43:16;;;;;;;6.70;6.00;;;14.50;99.90;;;;;;5067732;28;20428;-52
2022/06/21 05:45:47;;;;;;;8.00;5.87;;;14.60;99.90;;;;;;5069131;28;20503;-55
2022/06/21 05:48:21;;;;;;;6.13;5.57;;;14.80;99.90;;;;;;5056359;28;20467;-51
2022/06/21 05:50:47;;;;;;;6.20;5.60;;;14.90;99.90;;;;;;5066531;28;20770;-50
2022/06/21 05:53:33;;;;;;;6.50;5.90;;;15.00;99.90;;;;;;5069236;28;20416;-54
2022/06/21 05:56:04;;;;;;;6.33;5.73;;;14.90;99.90;;;;;;5068632;28;21172;-52
2022/06/21 05:58:34;;;;;;;5.20;4.80;;;15.00;99.90;;;;;;5068854;28;20476;-52
2022/06/21 06:01:15;;;;;;;6.47;5.83;;;15.10;99.90;;;;;;5067934;28;20498;-49
2022/06/21 06:03:50;;;;;;;6.53;6.03;;;15.10;99.90;;;;;;5067810;28;20424;-52
2022/06/21 06:06:20;;;;;;;5.97;5.40;;;15.00;99.90;;;;;;5056660;28;20423;-51
2022/06/21 06:08:52;;;;;;;6.83;5.47;;;15.00;99.90;;;;;;5051035;28;20784;-54
2022/06/21 06:11:57;;;;;;;7.70;6.67;;;15.00;99.90;;;;;;5069028;28;20747;-52
2022/06/21 06:14:12;;;;;;;7.40;6.80;;;15.00;99.90;;;;;;5068061;28;20470;-53
2022/06/21 06:16:40;;;;;;;6.43;5.73;;;15.10;99.90;;;;;;5068514;28;20415;-55
2022/06/21 06:19:14;;;;;;;8.83;6.83;;;15.20;99.90;;;;;;5068929;28;20483;-54
2022/06/21 06:21:53;;;;;;;6.97;6.27;;;15.30;99.90;;;;;;5066344;28;20486;-54
2022/06/21 06:24:26;;;;;;;6.43;5.97;;;15.50;99.90;;;;;;5078429;28;20434;-49
2022/06/21 06:26:56;;;;;;;6.67;6.13;;;15.60;99.90;;;;;;5056488;28;20426;-52
2022/06/21 06:29:28;;;;;;;7.07;5.90;;;15.70;99.90;;;;;;5062599;28;20547;-52
2022/06/21 06:31:59;;;;;;;6.73;6.00;;;15.90;99.90;;;;;;5067251;28;20421;-52
2022/06/21 06:34:29;;;;;;;6.87;6.10;;;16.10;99.90;;;;;;5064849;28;20449;-53
2022/06/21 06:37:01;;;;;;;7.00;6.50;;;16.20;99.90;;;;;;5068796;28;20423;-52
2022/06/21 06:39:32;;;;;;;8.63;6.50;;;16.10;99.90;;;;;;5066757;28;20443;-51
2022/06/21 06:42:13;;;;;;;7.47;6.77;;;15.90;99.90;;;;;;5059037;28;20493;-51
2022/06/21 06:44:41;;;;;;;7.43;6.40;;;15.80;99.90;;;;;;5072642;28;20462;-52
2022/06/21 06:47:25;;;;;;;6.93;6.33;;;15.90;99.90;;;;;;5058911;28;20441;-52
2022/06/21 06:50:04;;;;;;;6.87;6.37;;;15.80;99.90;;;;;;5052943;28;20533;-53
2022/06/21 06:52:35;;;;;;;8.53;6.73;;;15.80;99.90;;;;;;5066580;28;20479;-53
2022/06/21 06:55:06;;;;;;;7.47;6.73;;;15.80;99.90;;;;;;5081813;28;20428;-52
2022/06/21 06:57:40;;;;;;;6.90;6.30;;;15.90;99.90;;;;;;5055799;28;21108;-51
2022/06/21 07:00:15;;;;;;;6.80;6.30;;;16.20;99.90;;;;;;5068640;28;20444;-54
2022/06/21 07:03:08;;;;;;;6.13;5.63;;;16.40;99.90;;;;;;5059844;28;20425;-48
2022/06/21 07:05:40;;;;;;;8.27;6.53;;;16.50;99.90;;;;;;5052097;28;20430;-53
2022/06/21 07:08:38;;;;;;;6.40;5.90;;;16.40;99.90;;;;;;5068740;28;20469;-50
2022/06/21 07:11:21;;;;;;;7.23;6.63;;;16.40;99.90;;;;;;5069390;28;20440;-54
2022/06/21 07:13:48;;;;;;;9.30;6.37;;;16.50;99.90;;;;;;5071852;28;20422;-52
2022/06/21 07:16:19;;;;;;;6.53;6.10;;;16.60;99.90;;;;;;5071393;28;20430;-51
2022/06/21 07:18:50;;;;;;;6.60;6.10;;;16.60;99.90;;;;;;5071791;28;20456;-54
2022/06/21 07:21:18;;;;;;;7.30;6.70;;;16.40;99.90;;;;;;5070941;28;20432;-51
2022/06/21 07:23:45;;;;;;;7.03;6.27;;;16.30;99.90;;;;;;5057978;28;20429;-49
2022/06/21 07:26:23;;;;;;;7.10;6.50;;;16.20;99.90;;;;;;5070119;28;20515;-55
2022/06/21 07:28:54;;;;;;;7.10;6.40;;;16.20;99.90;;;;;;5081494;28;20459;-54
2022/06/21 07:31:28;;;;;;;7.00;5.90;;;16.30;99.90;;;;;;5065814;28;21050;-51
2022/06/21 07:34:03;;;;;;;6.03;5.53;;;16.30;99.90;;;;;;5062967;28;20426;-54
2022/06/21 07:36:55;;;;;;;6.90;6.30;;;16.30;99.90;;;;;;5070775;28;20474;-55
2022/06/21 07:39:33;;;;;;;6.60;6.10;;;16.30;99.90;;;;;;5065382;28;20432;-55
2022/06/21 07:42:29;;;;;;;6.50;6.00;;;16.30;99.90;;;;;;5053457;28;20470;-53
2022/06/21 07:45:04;;;;;;;13.83;6.30;;;16.40;99.90;;;;;;5051353;28;20426;-53
2022/06/21 07:47:41;;;;;;;6.30;5.80;;;16.50;99.90;;;;;;5069575;28;20431;-55
2022/06/21 07:50:37;;;;;;;6.30;5.90;;;16.50;99.90;;;;;;5062346;28;20427;-55
2022/06/21 07:53:11;;;;;;;5.53;5.13;;;16.90;99.90;;;;;;5053796;28;20936;-51
2022/06/21 07:55:42;;;;;;;6.87;6.37;;;17.30;99.80;;;;;;5060482;28;20442;-51
2022/06/21 07:58:13;;;;;;;8.00;5.90;;;17.50;98.50;;;;;;5070270;28;20844;-53
2022/06/21 08:09:32;;;;;;;6.20;5.70;;;18.30;94.60;;;;;;5071166;28;20471;-52
2022/06/21 08:12:00;;;;;;;6.60;6.20;;;18.30;94.40;;;;;;5052598;28;20960;-50
2022/06/21 08:14:32;;;;;;;6.37;5.87;;;18.30;93.80;;;;;;5062576;28;20995;-53
2022/06/21 08:17:20;;;;;;;6.63;6.03;;;18.30;92.60;;;;;;5072122;28;20788;-53
2022/06/21 08:19:46;;;;;;;6.90;6.17;;;18.00;92.10;;;;;;5062858;28;20445;-51
2022/06/21 08:22:19;;;;;;;6.83;6.33;;;18.10;92.60;;;;;;5053713;28;20761;-49
2022/06/21 08:24:52;;;;;;;6.53;6.10;;;18.10;93.40;;;;;;5084039;28;20196;-52
2022/06/21 08:27:23;;;;;;;6.97;6.47;;;18.30;93.70;;;;;;5080327;28;20480;-53
2022/06/21 08:30:05;;;;;;;6.50;6.10;;;18.60;93.90;;;;;;5090298;28;20967;-52
2022/06/21 08:33:01;;;;;;;5.70;5.30;;;18.80;91.70;;;;;;5070712;28;20444;-54
2022/06/21 08:35:32;;;;;;;6.47;6.00;;;18.70;90.60;;;;;;5082502;28;20498;-49
2022/06/21 08:38:01;;;;;;;5.63;5.23;;;18.60;91.90;;;;;;5065189;28;20436;-50
2022/06/21 08:41:01;;;;;;;7.20;6.30;;;18.70;92.10;;;;;;5057844;28;20583;-54
2022/06/21 08:43:45;;;;;;;5.93;5.43;;;18.90;90.60;;;;;;5071943;28;20511;-50
2022/06/21 08:46:32;;;;;;;6.30;5.70;;;18.80;90.90;;;;;;5071728;28;20440;-54
2022/06/21 08:49:10;;;;;;;5.30;4.90;;;18.90;91.50;;;;;;5070923;28;20490;-50
2022/06/21 08:52:04;;;;;;;5.40;5.10;;;19.10;90.60;;;;;;5071953;28;20428;-49
2022/06/21 08:54:49;;;;;;;6.17;5.77;;;19.30;87.00;;;;;;5077288;28;20519;-50
2022/06/21 08:57:28;;;;;;;5.47;5.07;;;19.20;85.70;;;;;;5082213;28;20926;-53
2022/06/21 09:00:03;;;;;;;6.80;5.10;;;19.20;85.80;;;;;;5078115;28;20430;-49
2022/06/21 09:02:29;;;;;;;5.80;5.30;;;19.40;86.10;;;;;;5068536;28;20514;-51
2022/06/21 09:05:25;;;;;;;6.33;5.73;;;20.00;83.50;;;;;;5070084;28;20503;-50
2022/06/21 09:07:57;;;;;;;6.07;5.57;;;20.10;81.40;;;;;;5063320;28;20208;-49
2022/06/21 09:10:43;;;;;;;6.30;5.73;;;19.80;82.20;;;;;;5071867;28;21318;-51
2022/06/21 09:13:19;;;;;;;6.37;5.90;;;19.50;85.00;;;;;;5069466;28;20466;-50
2022/06/21 09:16:03;;;;;;;7.13;6.07;;;19.60;82.30;;;;;;5075966;28;20439;-53
2022/06/21 09:18:45;;;;;;;7.03;6.40;;;19.40;80.40;;;;;;5089944;28;20391;-53
2022/06/21 09:21:31;;;;;;;6.07;5.47;;;19.50;80.60;;;;;;5051435;28;20990;-52
2022/06/21 09:24:02;;;;;;;5.80;5.40;;;19.70;77.50;;;;;;5049838;28;20417;-52
2022/06/21 09:26:41;;;;;;;5.77;5.37;;;20.10;79.60;;;;;;5067835;28;20466;-48
2022/06/21 09:29:50;;;;;;;6.23;5.73;;;20.60;76.60;;;;;;5069621;28;20447;-49
2022/06/21 09:32:34;;;;;;;6.27;5.77;;;20.70;76.50;;;;;;5065305;28;20825;-54
2022/06/21 09:35:20;;;;;;;6.10;5.70;;;20.80;75.70;;;;;;5068531;28;20917;-51
2022/06/21 09:38:13;;;;;;;5.50;5.20;;;21.20;73.90;;;;;;5049809;28;20406;-50
2022/06/21 09:41:05;;;;;;;5.37;4.83;;;22.10;67.60;;;;;;5064357;28;20442;-50
2022/06/21 09:43:43;;;;;;;6.83;6.23;;;23.20;60.30;;;;;;5081164;28;20430;-52
2022/06/21 09:46:49;;;;;;;6.57;6.07;;;23.50;56.40;;;;;;5074826;28;20443;-48
2022/06/21 09:49:42;;;;;;;7.20;6.70;;;22.70;57.60;;;;;;5066330;28;21046;-53
2022/06/21 09:52:35;;;;;;;6.67;6.27;;;22.50;61.10;;;;;;5069399;28;20538;-53
2022/06/21 09:55:36;;;;;;;6.40;6.00;;;22.80;59.20;;;;;;5067282;28;20462;-53
2022/06/21 09:58:21;;;;;;;6.77;6.07;;;23.40;55.90;;;;;;5062960;28;20483;-52
2022/06/21 10:01:00;;;;;;;6.50;6.00;;;23.30;55.40;;;;;;5049781;28;20459;-52
2022/06/21 10:03:57;;;;;;;6.90;6.30;;;22.90;55.70;;;;;;5058634;28;20440;-49
2022/06/21 10:06:30;;;;;;;5.43;5.13;;;23.00;54.80;;;;;;5049451;28;21359;-50
2022/06/21 10:09:31;;;;;;;5.50;5.10;;;23.70;53.50;;;;;;5050192;28;20472;-47
2022/06/21 10:12:25;;;;;;;6.73;6.33;;;24.60;50.90;;;;;;5061405;28;20427;-51
2022/06/21 10:15:47;;;;;;;6.20;5.80;;;23.90;50.00;;;;;;5069743;28;20453;-52
2022/06/21 10:18:25;;;;;;;5.90;5.47;;;22.80;51.60;;;;;;5001129;28;20433;-53
2022/06/21 10:21:13;;;;;;;6.43;6.03;;;22.20;53.20;;;;;;5056632;28;20786;-51
2022/06/21 10:24:16;;;;;;;5.57;5.20;;;22.50;53.40;;;;;;5052667;28;20471;-52
2022/06/21 10:26:53;;;;;;;5.90;5.37;;;23.80;49.60;;;;;;5079387;28;20454;-50
2022/06/21 10:29:29;;;;;;;6.40;6.00;;;25.10;47.10;;;;;;5060391;28;20550;-51
2022/06/21 10:32:19;;;;;;;5.70;5.40;;;25.30;45.30;;;;;;5071041;28;20954;-52
2022/06/21 10:35:15;;;;;;;11.70;10.90;;;24.40;46.40;;;;;;5060092;28;20438;-49
2022/06/21 10:38:07;;;;;;;5.90;5.40;;;24.60;47.00;;;;;;5053750;28;20427;-53
2022/06/21 10:40:58;;;;;;;6.20;5.80;;;25.50;45.80;;;;;;5070343;28;20429;-53
2022/06/21 10:43:53;;;;;;;6.00;5.60;;;26.50;43.20;;;;;;5081361;28;20893;-54
2022/06/21 10:46:36;;;;;;;5.90;5.37;;;26.90;43.20;;;;;;5072871;28;20438;-52
2022/06/21 10:49:11;;;;;;;5.40;5.03;;;27.10;40.50;;;;;;5071812;28;20493;-53
2022/06/21 10:51:53;;;;;;;5.40;5.10;;;27.50;40.20;;;;;;5072103;28;20480;-53
2022/06/21 10:54:48;;;;;;;5.40;4.90;;;28.00;37.40;;;;;;5063879;28;20440;-53
2022/06/21 10:57:37;;;;;;;5.70;5.10;;;28.20;36.00;;;;;;5069378;28;20824;-51
2022/06/21 11:02:56;;;;;;;5.00;4.60;;;29.30;33.50;;;;;;5074248;28;20450;-53
2022/06/21 11:05:50;;;;;;;5.20;4.90;;;28.70;32.20;;;;;;5056959;28;20511;-50
2022/06/21 11:08:22;;;;;;;5.90;5.50;;;29.10;31.50;;;;;;5052449;28;20504;-53
2022/06/21 11:10:57;;;;;;;5.97;5.60;;;28.70;31.90;;;;;;5051841;28;20421;-50
2022/06/21 11:13:32;;;;;;;5.40;5.10;;;28.20;33.10;;;;;;5051959;28;20416;-52
2022/06/21 11:16:57;;;;;;;5.47;5.17;;;28.30;33.40;;;;;;5059505;28;20433;-52
2022/06/21 11:19:51;;;;;;;5.77;5.30;;;28.80;31.10;;;;;;5009511;28;20422;-52
2022/06/21 11:22:56;;;;;;;5.30;5.00;;;29.40;32.50;;;;;;5052602;28;21123;-53
2022/06/21 11:25:38;;;;;;;6.67;5.37;;;29.70;29.40;;;;;;5056885;28;21093;-49
2022/06/21 11:28:09;;;;;;;5.43;5.03;;;29.70;30.30;;;;;;5080401;28;20465;-54
2022/06/21 11:30:48;;;;;;;5.70;5.30;;;30.30;28.70;;;;;;5057387;28;20432;-53
2022/06/21 11:33:36;;;;;;;5.77;5.30;;;29.90;28.30;;;;;;5060248;28;20416;-55
2022/06/21 11:36:15;;;;;;;5.60;5.20;;;29.20;30.20;;;;;;5052969;28;20831;-51
2022/06/21 11:39:12;;;;;;;4.97;4.67;;;29.50;30.10;;;;;;5064238;28;20427;-51
2022/06/21 11:42:04;;;;;;;4.80;4.50;;;30.50;27.80;;;;;;5070771;28;20443;-53
2022/06/21 11:44:45;;;;;;;5.80;5.30;;;31.30;27.50;;;;;;5070412;28;20814;-54
2022/06/21 11:47:18;;;;;;;5.17;4.80;;;31.30;27.30;;;;;;5066441;28;20522;-49
2022/06/21 11:50:13;;;;;;;5.20;4.80;;;31.40;27.60;;;;;;5067855;28;20475;-49
2022/06/21 11:52:56;;;;;;;4.90;4.60;;;31.70;26.30;;;;;;5069079;28;20443;-52
2022/06/21 11:55:39;;;;;;;5.77;5.30;;;32.00;26.50;;;;;;5070903;28;20474;-55
2022/06/21 11:58:26;;;;;;;5.30;4.90;;;32.20;25.50;;;;;;5061884;28;20468;-52
2022/06/21 12:00:59;;;;;;;5.33;4.93;;;32.20;25.00;;;;;;5062681;28;21624;-55
2022/06/21 12:03:50;;;;;;;5.33;5.03;;;32.30;25.20;;;;;;5060172;28;21030;-53
2022/06/21 12:06:46;;;;;;;5.30;5.00;;;32.00;24.70;;;;;;5064144;28;20508;-54
2022/06/21 12:09:38;;;;;;;4.90;4.60;;;32.30;24.10;;;;;;5065859;28;20486;-53
2022/06/21 12:12:19;;;;;;;4.83;4.53;;;33.00;23.20;;;;;;5065998;28;20431;-50
2022/06/21 12:15:00;;;;;;;5.90;5.40;;;32.80;23.60;;;;;;5070353;28;20439;-56
2022/06/21 12:17:43;;;;;;;6.17;5.77;;;33.20;23.60;;;;;;5066402;28;20440;-55
2022/06/21 12:20:17;;;;;;;5.30;5.00;;;33.00;22.60;;;;;;5050161;28;20417;-55
2022/06/21 12:22:47;;;;;;;5.90;5.40;;;33.00;24.10;;;;;;5060466;28;20502;-54
2022/06/21 12:25:16;;;;;;;5.03;4.77;;;33.00;23.30;;;;;;5063882;28;20439;-50
2022/06/21 12:27:41;;;;;;;5.50;5.10;;;33.20;22.00;;;;;;5070989;28;20523;-54
2022/06/21 12:30:30;;;;;;;5.07;4.77;;;33.40;21.70;;;;;;5070007;28;20872;-53
2022/06/21 12:33:02;;;;;;;5.17;4.97;;;33.50;21.80;;;;;;5068347;28;20670;-52
2022/06/21 12:35:46;;;;;;;5.33;5.03;;;33.50;21.70;;;;;;5062101;28;20473;-51
2022/06/21 12:38:18;;;;;;;4.80;4.60;;;33.80;21.60;;;;;;5064076;28;20462;-55
2022/06/21 12:41:21;;;;;;;4.83;4.43;;;33.90;21.10;;;;;;5067678;28;20516;-53
2022/06/21 12:44:09;;;;;;;5.67;5.37;;;33.60;20.30;;;;;;5048842;28;20425;-52
2022/06/21 12:47:06;;;;;;;5.33;5.03;;;34.10;20.30;;;;;;5055879;28;20906;-51
2022/06/21 12:50:10;;;;;;;6.00;5.60;;;33.90;19.90;;;;;;5069053;28;20447;-53
2022/06/21 12:52:43;;;;;;;5.33;5.00;;;33.30;20.10;;;;;;5067666;28;20435;-55
2022/06/21 12:55:13;;;;;;;5.00;4.70;;;32.60;21.10;;;;;;5049745;28;20849;-54
2022/06/21 12:58:20;;;;;;;5.47;5.07;;;32.40;20.80;;;;;;5062265;28;20456;-54
2022/06/21 13:00:55;;;;;;;5.43;5.07;;;32.00;22.40;;;;;;5087789;28;20423;-56
2022/06/21 13:03:49;;;;;;;4.90;4.50;;;32.50;22.00;;;;;;5068552;28;20426;-53
2022/06/21 13:06:34;;;;;;;4.90;4.63;;;32.40;21.00;;;;;;5069376;28;20400;-56
2022/06/21 13:09:30;;;;;;;5.73;5.20;;;33.20;20.70;;;;;;5048892;28;20479;-53
2022/06/21 13:12:14;;;;;;;5.03;4.70;;;33.40;20.90;;;;;;5051677;28;20416;-50
2022/06/21 13:15:11;;;;;;;5.20;4.90;;;34.10;20.00;;;;;;5067639;28;20482;-51
2022/06/21 13:18:02;;;;;;;4.50;4.20;;;34.40;19.70;;;;;;5067693;28;21327;-53
2022/06/21 13:20:56;;;;;;;5.47;5.17;;;34.70;18.40;;;;;;5069268;28;20404;-52
2022/06/21 13:23:28;;;;;;;5.07;4.83;;;34.50;19.40;;;;;;5067511;28;20439;-53
2022/06/21 13:26:21;;;;;;;4.93;4.73;;;34.40;19.00;;;;;;5076229;28;20847;-53
2022/06/21 13:29:31;;;;;;;5.40;5.10;;;34.70;18.90;;;;;;5070784;28;20950;-52
2022/06/21 13:32:04;;;;;;;4.90;4.60;;;35.60;18.20;;;;;;5049797;28;20436;-54
2022/06/21 13:34:36;;;;;;;5.47;5.07;;;35.80;18.40;;;;;;5067124;28;20431;-53
2022/06/21 13:37:22;;;;;;;4.60;4.30;;;36.40;17.80;;;;;;5075931;28;20450;-54
2022/06/21 13:40:26;;;;;;;4.77;4.57;;;36.80;16.70;;;;;;5068273;28;20459;-52
2022/06/21 13:42:59;;;;;;;6.10;4.50;;;36.40;16.30;;;;;;5063143;28;21356;-56
2022/06/21 13:45:49;;;;;;;4.57;4.27;;;36.20;16.50;;;;;;5050232;28;20516;-54
2022/06/21 13:48:39;;;;;;;5.07;4.67;;;35.90;16.40;;;;;;5057711;28;20429;-54
2022/06/21 13:51:13;;;;;;;5.30;4.90;;;34.60;16.90;;;;;;5052339;28;20799;-51
2022/06/21 13:53:59;;;;;;;4.70;4.33;;;34.00;17.60;;;;;;5058683;28;20440;-53
2022/06/21 13:56:29;;;;;;;4.87;4.57;;;33.50;18.70;;;;;;5067177;28;20408;-55
2022/06/21 13:59:06;;;;;;;4.97;4.57;;;32.90;18.90;;;;;;5068283;28;20487;-52
2022/06/21 14:01:42;;;;;;;5.40;5.10;;;32.90;19.60;;;;;;5067479;28;20530;-52